sensor_id;sensor_type;location;lat;lon;timestamp;temperature;humidity
14670;DHT22;7423;48.722;9.350;2022-07-18T00:00:28;22.70;69.30
14670;DHT22;7423;48.722;9.350;2022-07-18T00:02:55;22.60;69.90
14670;DHT22;7423;48.722;9.350;2022-07-18T00:05:22;22.60;69.60
14670;DHT22;7423;48.722;9.350;2022-07-18T00:07:49;22.50;69.50
14670;DHT22;7423;48.722;9.350;2022-07-18T00:10:16;22.20;70.00
14670;DHT22;7423;48.722;9.350;2022-07-18T00:12:44;22.40;70.30
14670;DHT22;7423;48.722;9.350;2022-07-18T00:15:11;22.40;70.50
14670;DHT22;7423;48.722;9.350;2022-07-18T00:17:38;22.30;70.80
14670;DHT22;7423;48.722;9.350;2022-07-18T00:20:07;22.30;70.90
14670;DHT22;7423;48.722;9.350;2022-07-18T00:22:35;22.30;71.00
14670;DHT22;7423;48.722;9.350;2022-07-18T00:25:02;22.20;71.30
14670;DHT22;7423;48.722;9.350;2022-07-18T00:27:29;22.20;71.30
14670;DHT22;7423;48.722;9.350;2022-07-18T00:29:56;22.20;71.40
14670;DHT22;7423;48.722;9.350;2022-07-18T00:32:23;22.10;71.20
14670;DHT22;7423;48.722;9.350;2022-07-18T00:34:50;22.10;71.90
14670;DHT22;7423;48.722;9.350;2022-07-18T00:37:21;22.10;72.10
14670;DHT22;7423;48.722;9.350;2022-07-18T00:39:48;22.10;72.50
14670;DHT22;7423;48.722;9.350;2022-07-18T00:42:15;22.00;72.60
14670;DHT22;7423;48.722;9.350;2022-07-18T00:44:42;22.00;72.70
14670;DHT22;7423;48.722;9.350;2022-07-18T00:47:09;22.00;73.00
14670;DHT22;7423;48.722;9.350;2022-07-18T00:49:35;22.00;73.10
14670;DHT22;7423;48.722;9.350;2022-07-18T00:52:03;21.90;73.20
14670;DHT22;7423;48.722;9.350;2022-07-18T00:54:30;21.80;73.50
14670;DHT22;7423;48.722;9.350;2022-07-18T00:56:59;21.80;73.80
14670;DHT22;7423;48.722;9.350;2022-07-18T00:59:27;21.80;74.00
14670;DHT22;7423;48.722;9.350;2022-07-18T01:02:14;21.70;74.20
14670;DHT22;7423;48.722;9.350;2022-07-18T01:04:41;21.60;74.30
14670;DHT22;7423;48.722;9.350;2022-07-18T01:07:09;21.60;74.70
14670;DHT22;7423;48.722;9.350;2022-07-18T01:09:36;21.60;75.00
14670;DHT22;7423;48.722;9.350;2022-07-18T01:12:03;21.50;75.20
14670;DHT22;7423;48.722;9.350;2022-07-18T01:14:31;21.50;75.30
14670;DHT22;7423;48.722;9.350;2022-07-18T01:16:58;21.50;75.50
14670;DHT22;7423;48.722;9.350;2022-07-18T01:19:25;21.50;75.50
14670;DHT22;7423;48.722;9.350;2022-07-18T01:21:52;21.40;75.70
14670;DHT22;7423;48.722;9.350;2022-07-18T01:24:19;21.30;75.90
14670;DHT22;7423;48.722;9.350;2022-07-18T01:26:46;21.30;76.10
14670;DHT22;7423;48.722;9.350;2022-07-18T01:29:13;21.30;76.70
14670;DHT22;7423;48.722;9.350;2022-07-18T01:31:40;21.30;76.50
14670;DHT22;7423;48.722;9.350;2022-07-18T01:34:06;21.20;76.80
14670;DHT22;7423;48.722;9.350;2022-07-18T01:36:33;21.20;77.00
14670;DHT22;7423;48.722;9.350;2022-07-18T01:39:00;21.20;77.00
14670;DHT22;7423;48.722;9.350;2022-07-18T01:41:27;21.20;76.80
14670;DHT22;7423;48.722;9.350;2022-07-18T01:43:54;21.10;76.70
14670;DHT22;7423;48.722;9.350;2022-07-18T01:46:21;21.10;76.90
14670;DHT22;7423;48.722;9.350;2022-07-18T01:48:48;21.10;77.20
14670;DHT22;7423;48.722;9.350;2022-07-18T01:51:15;21.10;77.50
14670;DHT22;7423;48.722;9.350;2022-07-18T01:53:42;21.10;77.60
14670;DHT22;7423;48.722;9.350;2022-07-18T01:56:20;21.10;77.70
14670;DHT22;7423;48.722;9.350;2022-07-18T01:58:48;21.00;77.60
14670;DHT22;7423;48.722;9.350;2022-07-18T02:01:14;21.00;77.90
14670;DHT22;7423;48.722;9.350;2022-07-18T02:03:41;21.00;78.10
14670;DHT22;7423;48.722;9.350;2022-07-18T02:06:08;21.00;78.30
14670;DHT22;7423;48.722;9.350;2022-07-18T02:08:35;21.00;78.60
14670;DHT22;7423;48.722;9.350;2022-07-18T02:11:02;21.00;78.60
14670;DHT22;7423;48.722;9.350;2022-07-18T02:13:29;20.90;79.10
14670;DHT22;7423;48.722;9.350;2022-07-18T02:15:56;20.90;79.20
14670;DHT22;7423;48.722;9.350;2022-07-18T02:18:23;20.80;79.20
14670;DHT22;7423;48.722;9.350;2022-07-18T02:20:49;20.80;79.30
14670;DHT22;7423;48.722;9.350;2022-07-18T02:23:16;20.70;79.50
14670;DHT22;7423;48.722;9.350;2022-07-18T02:25:43;20.80;79.50
14670;DHT22;7423;48.722;9.350;2022-07-18T02:28:10;20.70;79.90
14670;DHT22;7423;48.722;9.350;2022-07-18T02:30:37;20.60;80.20
14670;DHT22;7423;48.722;9.350;2022-07-18T02:33:04;20.60;80.40
14670;DHT22;7423;48.722;9.350;2022-07-18T02:35:33;20.60;80.50
14670;DHT22;7423;48.722;9.350;2022-07-18T02:38:00;20.60;80.70
14670;DHT22;7423;48.722;9.350;2022-07-18T02:40:27;20.50;80.70
14670;DHT22;7423;48.722;9.350;2022-07-18T02:42:54;20.50;80.90
14670;DHT22;7423;48.722;9.350;2022-07-18T02:45:21;20.50;80.90
14670;DHT22;7423;48.722;9.350;2022-07-18T02:47:47;20.50;81.70
14670;DHT22;7423;48.722;9.350;2022-07-18T02:50:15;20.50;82.00
14670;DHT22;7423;48.722;9.350;2022-07-18T02:52:42;20.50;82.30
14670;DHT22;7423;48.722;9.350;2022-07-18T02:55:10;20.40;82.50
14670;DHT22;7423;48.722;9.350;2022-07-18T02:57:38;20.40;82.30
14670;DHT22;7423;48.722;9.350;2022-07-18T03:00:07;20.30;82.30
14670;DHT22;7423;48.722;9.350;2022-07-18T03:02:38;20.30;82.60
14670;DHT22;7423;48.722;9.350;2022-07-18T03:05:05;20.30;82.80
14670;DHT22;7423;48.722;9.350;2022-07-18T03:07:32;20.30;83.30
14670;DHT22;7423;48.722;9.350;2022-07-18T03:09:59;20.30;83.00
14670;DHT22;7423;48.722;9.350;2022-07-18T03:12:26;20.30;82.30
14670;DHT22;7423;48.722;9.350;2022-07-18T03:14:54;20.20;82.90
14670;DHT22;7423;48.722;9.350;2022-07-18T03:17:21;20.20;84.00
14670;DHT22;7423;48.722;9.350;2022-07-18T03:19:48;20.10;84.00
14670;DHT22;7423;48.722;9.350;2022-07-18T03:22:15;20.10;84.20
14670;DHT22;7423;48.722;9.350;2022-07-18T03:24:41;20.00;84.20
14670;DHT22;7423;48.722;9.350;2022-07-18T03:27:08;19.90;84.60
14670;DHT22;7423;48.722;9.350;2022-07-18T03:29:35;19.90;84.80
14670;DHT22;7423;48.722;9.350;2022-07-18T03:32:02;19.90;84.90
14670;DHT22;7423;48.722;9.350;2022-07-18T03:34:29;20.00;85.00
14670;DHT22;7423;48.722;9.350;2022-07-18T03:36:56;19.90;84.90
14670;DHT22;7423;48.722;9.350;2022-07-18T03:39:23;19.90;85.40
14670;DHT22;7423;48.722;9.350;2022-07-18T03:41:50;19.80;85.00
14670;DHT22;7423;48.722;9.350;2022-07-18T03:44:18;19.80;85.20
14670;DHT22;7423;48.722;9.350;2022-07-18T03:46:45;19.80;86.00
14670;DHT22;7423;48.722;9.350;2022-07-18T03:49:12;19.80;85.30
14670;DHT22;7423;48.722;9.350;2022-07-18T03:51:39;19.80;85.30
14670;DHT22;7423;48.722;9.350;2022-07-18T03:54:06;19.80;85.50
14670;DHT22;7423;48.722;9.350;2022-07-18T03:56:36;19.80;85.60
14670;DHT22;7423;48.722;9.350;2022-07-18T03:59:03;19.70;86.60
14670;DHT22;7423;48.722;9.350;2022-07-18T04:01:30;19.70;86.30
14670;DHT22;7423;48.722;9.350;2022-07-18T04:03:57;19.70;86.20
14670;DHT22;7423;48.722;9.350;2022-07-18T04:06:24;19.60;86.40
14670;DHT22;7423;48.722;9.350;2022-07-18T04:08:51;19.60;86.40
14670;DHT22;7423;48.722;9.350;2022-07-18T04:11:17;19.60;86.60
14670;DHT22;7423;48.722;9.350;2022-07-18T04:13:48;19.60;86.90
14670;DHT22;7423;48.722;9.350;2022-07-18T04:16:15;19.50;86.90
14670;DHT22;7423;48.722;9.350;2022-07-18T04:18:42;19.60;87.00
14670;DHT22;7423;48.722;9.350;2022-07-18T04:21:09;19.60;86.90
14670;DHT22;7423;48.722;9.350;2022-07-18T04:23:36;19.60;86.60
14670;DHT22;7423;48.722;9.350;2022-07-18T04:26:03;19.60;86.40
14670;DHT22;7423;48.722;9.350;2022-07-18T04:28:30;19.60;86.80
14670;DHT22;7423;48.722;9.350;2022-07-18T04:30:57;19.60;86.70
14670;DHT22;7423;48.722;9.350;2022-07-18T04:33:24;19.70;86.60
14670;DHT22;7423;48.722;9.350;2022-07-18T04:35:51;19.60;87.40
14670;DHT22;7423;48.722;9.350;2022-07-18T04:38:18;19.60;86.60
14670;DHT22;7423;48.722;9.350;2022-07-18T04:40:45;19.60;86.40
14670;DHT22;7423;48.722;9.350;2022-07-18T04:43:12;19.60;86.30
14670;DHT22;7423;48.722;9.350;2022-07-18T04:45:39;19.60;86.00
14670;DHT22;7423;48.722;9.350;2022-07-18T04:48:06;19.60;86.30
14670;DHT22;7423;48.722;9.350;2022-07-18T04:50:33;19.60;85.90
14670;DHT22;7423;48.722;9.350;2022-07-18T04:53:00;19.60;86.00
14670;DHT22;7423;48.722;9.350;2022-07-18T04:55:27;19.60;85.90
14670;DHT22;7423;48.722;9.350;2022-07-18T04:57:55;19.70;86.00
14670;DHT22;7423;48.722;9.350;2022-07-18T05:00:24;19.70;85.90
14670;DHT22;7423;48.722;9.350;2022-07-18T05:02:54;19.80;85.60
14670;DHT22;7423;48.722;9.350;2022-07-18T05:05:24;19.80;85.40
14670;DHT22;7423;48.722;9.350;2022-07-18T05:08:01;19.80;85.20
14670;DHT22;7423;48.722;9.350;2022-07-18T05:10:28;19.80;85.10
14670;DHT22;7423;48.722;9.350;2022-07-18T05:12:55;19.80;84.90
14670;DHT22;7423;48.722;9.350;2022-07-18T05:15:24;19.90;84.90
14670;DHT22;7423;48.722;9.350;2022-07-18T05:17:52;19.90;85.10
14670;DHT22;7423;48.722;9.350;2022-07-18T05:20:21;19.90;85.20
14670;DHT22;7423;48.722;9.350;2022-07-18T05:22:49;19.90;85.20
14670;DHT22;7423;48.722;9.350;2022-07-18T05:25:19;19.90;85.30
14670;DHT22;7423;48.722;9.350;2022-07-18T05:27:49;19.90;85.60
14670;DHT22;7423;48.722;9.350;2022-07-18T05:30:18;19.90;85.80
14670;DHT22;7423;48.722;9.350;2022-07-18T05:32:46;20.00;85.80
14670;DHT22;7423;48.722;9.350;2022-07-18T05:35:13;20.00;85.90
14670;DHT22;7423;48.722;9.350;2022-07-18T05:37:42;20.10;86.50
14670;DHT22;7423;48.722;9.350;2022-07-18T05:40:10;20.10;85.50
14670;DHT22;7423;48.722;9.350;2022-07-18T05:42:39;20.20;85.80
14670;DHT22;7423;48.722;9.350;2022-07-18T05:45:23;20.20;86.00
14670;DHT22;7423;48.722;9.350;2022-07-18T05:47:51;20.20;86.00
14670;DHT22;7423;48.722;9.350;2022-07-18T05:50:18;20.10;86.10
14670;DHT22;7423;48.722;9.350;2022-07-18T05:52:45;20.20;85.70
14670;DHT22;7423;48.722;9.350;2022-07-18T05:55:13;20.30;85.70
14670;DHT22;7423;48.722;9.350;2022-07-18T05:57:39;20.40;85.00
14670;DHT22;7423;48.722;9.350;2022-07-18T06:00:08;20.40;84.70
14670;DHT22;7423;48.722;9.350;2022-07-18T06:02:37;20.40;84.10
14670;DHT22;7423;48.722;9.350;2022-07-18T06:05:05;20.30;84.00
14670;DHT22;7423;48.722;9.350;2022-07-18T06:07:49;20.40;84.30
14670;DHT22;7423;48.722;9.350;2022-07-18T06:10:16;20.40;83.60
14670;DHT22;7423;48.722;9.350;2022-07-18T06:12:43;20.50;83.50
14670;DHT22;7423;48.722;9.350;2022-07-18T06:15:10;20.50;83.10
14670;DHT22;7423;48.722;9.350;2022-07-18T06:17:37;20.50;83.60
14670;DHT22;7423;48.722;9.350;2022-07-18T06:20:05;20.40;83.80
14670;DHT22;7423;48.722;9.350;2022-07-18T06:22:35;20.40;83.30
14670;DHT22;7423;48.722;9.350;2022-07-18T06:25:03;20.50;83.10
14670;DHT22;7423;48.722;9.350;2022-07-18T06:27:30;20.60;82.70
14670;DHT22;7423;48.722;9.350;2022-07-18T06:29:57;20.70;82.30
14670;DHT22;7423;48.722;9.350;2022-07-18T06:32:25;20.80;81.00
14670;DHT22;7423;48.722;9.350;2022-07-18T06:34:52;20.70;81.60
14670;DHT22;7423;48.722;9.350;2022-07-18T06:37:19;20.80;81.70
14670;DHT22;7423;48.722;9.350;2022-07-18T06:39:46;20.80;81.40
14670;DHT22;7423;48.722;9.350;2022-07-18T06:42:13;20.80;81.70
14670;DHT22;7423;48.722;9.350;2022-07-18T06:44:40;20.80;81.60
14670;DHT22;7423;48.722;9.350;2022-07-18T06:47:07;20.80;81.40
14670;DHT22;7423;48.722;9.350;2022-07-18T06:49:34;20.90;81.20
14670;DHT22;7423;48.722;9.350;2022-07-18T06:52:01;20.90;81.10
14670;DHT22;7423;48.722;9.350;2022-07-18T06:54:30;21.00;80.70
14670;DHT22;7423;48.722;9.350;2022-07-18T06:56:59;21.10;80.50
14670;DHT22;7423;48.722;9.350;2022-07-18T06:59:26;21.10;80.40
14670;DHT22;7423;48.722;9.350;2022-07-18T07:01:53;21.10;80.30
14670;DHT22;7423;48.722;9.350;2022-07-18T07:04:21;21.10;80.00
14670;DHT22;7423;48.722;9.350;2022-07-18T07:06:48;21.20;79.90
14670;DHT22;7423;48.722;9.350;2022-07-18T07:09:15;21.20;79.60
14670;DHT22;7423;48.722;9.350;2022-07-18T07:11:42;21.20;79.80
14670;DHT22;7423;48.722;9.350;2022-07-18T07:14:09;21.20;80.00
14670;DHT22;7423;48.722;9.350;2022-07-18T07:16:36;21.20;79.80
14670;DHT22;7423;48.722;9.350;2022-07-18T07:19:03;21.30;79.90
14670;DHT22;7423;48.722;9.350;2022-07-18T07:21:29;21.30;80.40
14670;DHT22;7423;48.722;9.350;2022-07-18T07:23:57;21.30;80.30
14670;DHT22;7423;48.722;9.350;2022-07-18T07:26:23;21.30;80.60
14670;DHT22;7423;48.722;9.350;2022-07-18T07:28:50;21.30;80.30
14670;DHT22;7423;48.722;9.350;2022-07-18T07:31:17;21.40;80.10
14670;DHT22;7423;48.722;9.350;2022-07-18T07:33:47;21.40;80.10
14670;DHT22;7423;48.722;9.350;2022-07-18T07:36:14;21.50;80.50
14670;DHT22;7423;48.722;9.350;2022-07-18T07:38:41;21.60;80.10
14670;DHT22;7423;48.722;9.350;2022-07-18T07:41:08;21.60;79.80
14670;DHT22;7423;48.722;9.350;2022-07-18T07:43:35;21.70;79.70
14670;DHT22;7423;48.722;9.350;2022-07-18T07:46:05;21.70;79.60
14670;DHT22;7423;48.722;9.350;2022-07-18T07:48:33;21.80;79.40
14670;DHT22;7423;48.722;9.350;2022-07-18T07:51:00;22.60;79.80
14670;DHT22;7423;48.722;9.350;2022-07-18T07:53:28;21.80;79.10
14670;DHT22;7423;48.722;9.350;2022-07-18T07:55:54;21.80;78.60
14670;DHT22;7423;48.722;9.350;2022-07-18T07:58:21;21.90;78.30
14670;DHT22;7423;48.722;9.350;2022-07-18T08:00:49;22.00;78.10
14670;DHT22;7423;48.722;9.350;2022-07-18T08:03:16;22.00;77.90
14670;DHT22;7423;48.722;9.350;2022-07-18T08:05:48;22.00;77.80
14670;DHT22;7423;48.722;9.350;2022-07-18T08:08:16;22.10;77.70
14670;DHT22;7423;48.722;9.350;2022-07-18T08:10:44;22.10;77.50
14670;DHT22;7423;48.722;9.350;2022-07-18T08:13:13;22.10;77.30
14670;DHT22;7423;48.722;9.350;2022-07-18T08:15:40;22.20;76.90
14670;DHT22;7423;48.722;9.350;2022-07-18T08:18:07;22.30;76.40
14670;DHT22;7423;48.722;9.350;2022-07-18T08:20:34;22.30;76.30
14670;DHT22;7423;48.722;9.350;2022-07-18T08:23:04;22.30;76.10
14670;DHT22;7423;48.722;9.350;2022-07-18T08:25:40;22.50;75.40
14670;DHT22;7423;48.722;9.350;2022-07-18T08:28:08;22.50;75.30
14670;DHT22;7423;48.722;9.350;2022-07-18T08:30:35;22.50;75.10
14670;DHT22;7423;48.722;9.350;2022-07-18T08:33:04;22.60;75.10
14670;DHT22;7423;48.722;9.350;2022-07-18T08:35:32;22.60;74.70
14670;DHT22;7423;48.722;9.350;2022-07-18T08:38:01;22.60;74.30
14670;DHT22;7423;48.722;9.350;2022-07-18T08:40:29;22.70;74.60
14670;DHT22;7423;48.722;9.350;2022-07-18T08:42:57;22.80;74.60
14670;DHT22;7423;48.722;9.350;2022-07-18T08:45:45;22.80;74.40
14670;DHT22;7423;48.722;9.350;2022-07-18T08:48:14;22.80;74.10
14670;DHT22;7423;48.722;9.350;2022-07-18T08:50:43;22.90;73.80
14670;DHT22;7423;48.722;9.350;2022-07-18T08:53:12;22.90;73.50
14670;DHT22;7423;48.722;9.350;2022-07-18T08:55:40;22.90;73.40
14670;DHT22;7423;48.722;9.350;2022-07-18T08:58:07;23.00;72.40
14670;DHT22;7423;48.722;9.350;2022-07-18T09:00:54;23.20;72.30
14670;DHT22;7423;48.722;9.350;2022-07-18T09:03:21;23.40;71.70
14670;DHT22;7423;48.722;9.350;2022-07-18T09:06:09;23.60;71.40
14670;DHT22;7423;48.722;9.350;2022-07-18T09:08:39;23.70;71.20
14670;DHT22;7423;48.722;9.350;2022-07-18T09:11:11;23.70;70.50
14670;DHT22;7423;48.722;9.350;2022-07-18T09:13:58;23.80;69.70
14670;DHT22;7423;48.722;9.350;2022-07-18T09:16:25;24.00;69.30
14670;DHT22;7423;48.722;9.350;2022-07-18T09:18:53;23.90;69.20
14670;DHT22;7423;48.722;9.350;2022-07-18T09:21:22;23.90;68.10
14670;DHT22;7423;48.722;9.350;2022-07-18T09:23:51;24.10;67.60
14670;DHT22;7423;48.722;9.350;2022-07-18T09:26:39;24.20;64.80
14670;DHT22;7423;48.722;9.350;2022-07-18T09:29:08;24.50;64.10
14670;DHT22;7423;48.722;9.350;2022-07-18T09:31:54;24.70;62.40
14670;DHT22;7423;48.722;9.350;2022-07-18T09:34:39;24.90;62.90
14670;DHT22;7423;48.722;9.350;2022-07-18T09:37:12;25.00;62.60
14670;DHT22;7423;48.722;9.350;2022-07-18T09:39:40;25.10;61.20
14670;DHT22;7423;48.722;9.350;2022-07-18T09:42:17;25.20;61.50
14670;DHT22;7423;48.722;9.350;2022-07-18T09:45:00;26.90;60.70
14670;DHT22;7423;48.722;9.350;2022-07-18T09:47:27;25.50;58.90
14670;DHT22;7423;48.722;9.350;2022-07-18T09:49:54;25.60;58.60
14670;DHT22;7423;48.722;9.350;2022-07-18T09:52:22;25.80;57.40
14670;DHT22;7423;48.722;9.350;2022-07-18T09:54:49;25.90;57.10
14670;DHT22;7423;48.722;9.350;2022-07-18T09:57:24;25.90;57.00
14670;DHT22;7423;48.722;9.350;2022-07-18T09:59:52;25.90;56.80
14670;DHT22;7423;48.722;9.350;2022-07-18T10:02:20;25.90;56.50
14670;DHT22;7423;48.722;9.350;2022-07-18T10:04:47;25.90;56.10
14670;DHT22;7423;48.722;9.350;2022-07-18T10:07:15;25.90;55.50
14670;DHT22;7423;48.722;9.350;2022-07-18T10:09:42;26.00;55.60
14670;DHT22;7423;48.722;9.350;2022-07-18T10:12:13;26.10;55.50
14670;DHT22;7423;48.722;9.350;2022-07-18T10:14:41;26.20;54.60
14670;DHT22;7423;48.722;9.350;2022-07-18T10:17:10;26.20;55.20
14670;DHT22;7423;48.722;9.350;2022-07-18T10:19:37;26.40;54.10
14670;DHT22;7423;48.722;9.350;2022-07-18T10:22:06;26.40;54.20
14670;DHT22;7423;48.722;9.350;2022-07-18T10:24:38;26.50;53.60
14670;DHT22;7423;48.722;9.350;2022-07-18T10:27:19;26.50;53.70
14670;DHT22;7423;48.722;9.350;2022-07-18T10:30:10;26.50;53.20
14670;DHT22;7423;48.722;9.350;2022-07-18T10:32:38;26.60;53.30
14670;DHT22;7423;48.722;9.350;2022-07-18T10:35:06;26.60;52.90
14670;DHT22;7423;48.722;9.350;2022-07-18T10:37:35;26.70;53.00
14670;DHT22;7423;48.722;9.350;2022-07-18T10:40:22;26.80;53.10
14670;DHT22;7423;48.722;9.350;2022-07-18T10:45:58;27.20;51.50
14670;DHT22;7423;48.722;9.350;2022-07-18T10:51:10;27.80;51.70
14670;DHT22;7423;48.722;9.350;2022-07-18T10:59:21;27.80;52.00
14670;DHT22;7423;48.722;9.350;2022-07-18T11:01:56;28.00;51.30
14670;DHT22;7423;48.722;9.350;2022-07-18T11:04:34;28.20;50.10
14670;DHT22;7423;48.722;9.350;2022-07-18T11:07:04;28.60;49.20
14670;DHT22;7423;48.722;9.350;2022-07-18T11:09:45;28.90;48.90
14670;DHT22;7423;48.722;9.350;2022-07-18T11:12:29;29.20;49.60
14670;DHT22;7423;48.722;9.350;2022-07-18T11:15:02;29.20;49.90
14670;DHT22;7423;48.722;9.350;2022-07-18T11:17:57;29.10;50.20
14670;DHT22;7423;48.722;9.350;2022-07-18T11:20:41;29.20;50.20
14670;DHT22;7423;48.722;9.350;2022-07-18T11:25:51;29.20;49.90
14670;DHT22;7423;48.722;9.350;2022-07-18T11:28:26;29.30;50.00
14670;DHT22;7423;48.722;9.350;2022-07-18T11:31:08;29.40;49.80
14670;DHT22;7423;48.722;9.350;2022-07-18T11:33:48;29.60;50.30
14670;DHT22;7423;48.722;9.350;2022-07-18T11:36:19;29.60;50.50
14670;DHT22;7423;48.722;9.350;2022-07-18T11:38:52;29.70;50.70
14670;DHT22;7423;48.722;9.350;2022-07-18T11:41:22;29.80;50.30
14670;DHT22;7423;48.722;9.350;2022-07-18T11:43:51;30.10;50.60
14670;DHT22;7423;48.722;9.350;2022-07-18T11:46:20;30.40;50.50
14670;DHT22;7423;48.722;9.350;2022-07-18T11:49:03;31.30;50.80
14670;DHT22;7423;48.722;9.350;2022-07-18T11:51:36;32.50;49.80
14670;DHT22;7423;48.722;9.350;2022-07-18T11:54:08;34.00;47.90
14670;DHT22;7423;48.722;9.350;2022-07-18T11:56:49;36.10;44.50
14670;DHT22;7423;48.722;9.350;2022-07-18T11:59:17;38.60;41.20
14670;DHT22;7423;48.722;9.350;2022-07-18T12:01:45;41.50;38.20
14670;DHT22;7423;48.722;9.350;2022-07-18T12:04:20;44.00;35.20
14670;DHT22;7423;48.722;9.350;2022-07-18T12:09:51;48.30;30.20
14670;DHT22;7423;48.722;9.350;2022-07-18T12:12:20;50.10;29.30
14670;DHT22;7423;48.722;9.350;2022-07-18T12:14:54;51.50;28.00
14670;DHT22;7423;48.722;9.350;2022-07-18T12:17:26;52.50;26.80
14670;DHT22;7423;48.722;9.350;2022-07-18T12:20:13;53.50;26.30
14670;DHT22;7423;48.722;9.350;2022-07-18T12:23:08;53.90;25.30
14670;DHT22;7423;48.722;9.350;2022-07-18T12:25:56;54.00;25.40
14670;DHT22;7423;48.722;9.350;2022-07-18T12:28:25;54.40;24.90
14670;DHT22;7423;48.722;9.350;2022-07-18T12:30:52;54.30;24.80
14670;DHT22;7423;48.722;9.350;2022-07-18T12:33:26;54.50;24.50
14670;DHT22;7423;48.722;9.350;2022-07-18T12:35:58;54.70;24.30
14670;DHT22;7423;48.722;9.350;2022-07-18T12:38:26;54.90;24.20
14670;DHT22;7423;48.722;9.350;2022-07-18T12:40:55;54.80;24.00
14670;DHT22;7423;48.722;9.350;2022-07-18T12:43:29;54.40;23.90
14670;DHT22;7423;48.722;9.350;2022-07-18T12:46:16;54.20;24.10
14670;DHT22;7423;48.722;9.350;2022-07-18T12:48:47;54.30;23.90
14670;DHT22;7423;48.722;9.350;2022-07-18T12:51:18;54.00;24.20
14670;DHT22;7423;48.722;9.350;2022-07-18T12:53:49;53.70;23.90
14670;DHT22;7423;48.722;9.350;2022-07-18T12:56:18;53.30;24.10
14670;DHT22;7423;48.722;9.350;2022-07-18T12:58:45;52.70;23.80
14670;DHT22;7423;48.722;9.350;2022-07-18T13:01:12;51.90;23.70
14670;DHT22;7423;48.722;9.350;2022-07-18T13:03:39;50.30;24.90
14670;DHT22;7423;48.722;9.350;2022-07-18T13:06:07;49.20;25.50
14670;DHT22;7423;48.722;9.350;2022-07-18T13:08:34;47.80;26.60
14670;DHT22;7423;48.722;9.350;2022-07-18T13:11:01;46.30;26.70
14670;DHT22;7423;48.722;9.350;2022-07-18T13:13:28;44.90;28.20
14670;DHT22;7423;48.722;9.350;2022-07-18T13:15:55;43.60;29.00
14670;DHT22;7423;48.722;9.350;2022-07-18T13:18:22;42.60;28.60
14670;DHT22;7423;48.722;9.350;2022-07-18T13:20:49;41.90;29.60
14670;DHT22;7423;48.722;9.350;2022-07-18T13:23:16;41.10;29.30
14670;DHT22;7423;48.722;9.350;2022-07-18T13:25:43;40.50;30.90
14670;DHT22;7423;48.722;9.350;2022-07-18T13:28:11;39.90;31.60
14670;DHT22;7423;48.722;9.350;2022-07-18T13:30:38;39.20;32.50
14670;DHT22;7423;48.722;9.350;2022-07-18T13:33:05;38.40;33.60
14670;DHT22;7423;48.722;9.350;2022-07-18T13:35:33;37.90;32.00
14670;DHT22;7423;48.722;9.350;2022-07-18T13:38:00;37.60;33.70
14670;DHT22;7423;48.722;9.350;2022-07-18T13:40:27;36.90;33.30
14670;DHT22;7423;48.722;9.350;2022-07-18T13:42:55;36.60;35.40
14670;DHT22;7423;48.722;9.350;2022-07-18T13:45:23;36.20;35.40
14670;DHT22;7423;48.722;9.350;2022-07-18T13:47:50;35.80;35.90
14670;DHT22;7423;48.722;9.350;2022-07-18T13:50:17;35.50;36.10
14670;DHT22;7423;48.722;9.350;2022-07-18T13:52:45;35.40;36.30
14670;DHT22;7423;48.722;9.350;2022-07-18T13:55:11;35.20;35.20
14670;DHT22;7423;48.722;9.350;2022-07-18T13:57:38;35.40;34.60
14670;DHT22;7423;48.722;9.350;2022-07-18T14:00:07;35.40;34.30
14670;DHT22;7423;48.722;9.350;2022-07-18T14:02:35;35.10;34.90
14670;DHT22;7423;48.722;9.350;2022-07-18T14:05:03;35.00;36.10
14670;DHT22;7423;48.722;9.350;2022-07-18T14:07:41;34.80;36.50
14670;DHT22;7423;48.722;9.350;2022-07-18T14:10:12;34.60;37.10
14670;DHT22;7423;48.722;9.350;2022-07-18T14:12:40;34.40;37.80
14670;DHT22;7423;48.722;9.350;2022-07-18T14:15:08;34.30;38.00
14670;DHT22;7423;48.722;9.350;2022-07-18T14:17:36;34.10;37.50
14670;DHT22;7423;48.722;9.350;2022-07-18T14:20:03;34.00;37.40
14670;DHT22;7423;48.722;9.350;2022-07-18T14:22:32;33.80;36.40
14670;DHT22;7423;48.722;9.350;2022-07-18T14:24:59;33.80;36.70
14670;DHT22;7423;48.722;9.350;2022-07-18T14:27:25;33.80;37.80
14670;DHT22;7423;48.722;9.350;2022-07-18T14:29:52;33.70;38.40
14670;DHT22;7423;48.722;9.350;2022-07-18T14:32:19;33.60;37.70
14670;DHT22;7423;48.722;9.350;2022-07-18T14:34:46;33.70;37.40
14670;DHT22;7423;48.722;9.350;2022-07-18T14:37:13;33.70;37.00
14670;DHT22;7423;48.722;9.350;2022-07-18T14:39:40;33.80;36.70
14670;DHT22;7423;48.722;9.350;2022-07-18T14:42:07;33.80;37.80
14670;DHT22;7423;48.722;9.350;2022-07-18T14:44:34;33.60;38.00
14670;DHT22;7423;48.722;9.350;2022-07-18T14:47:01;33.80;37.40
14670;DHT22;7423;48.722;9.350;2022-07-18T14:49:28;33.60;38.00
14670;DHT22;7423;48.722;9.350;2022-07-18T14:51:55;33.60;38.60
14670;DHT22;7423;48.722;9.350;2022-07-18T14:54:23;33.60;37.80
14670;DHT22;7423;48.722;9.350;2022-07-18T14:56:50;33.50;37.90
14670;DHT22;7423;48.722;9.350;2022-07-18T14:59:18;33.60;38.70
14670;DHT22;7423;48.722;9.350;2022-07-18T15:01:46;33.50;37.70
14670;DHT22;7423;48.722;9.350;2022-07-18T15:04:13;33.50;38.20
14670;DHT22;7423;48.722;9.350;2022-07-18T15:06:44;33.40;37.70
14670;DHT22;7423;48.722;9.350;2022-07-18T15:09:13;33.60;37.50
14670;DHT22;7423;48.722;9.350;2022-07-18T15:11:40;33.60;37.20
14670;DHT22;7423;48.722;9.350;2022-07-18T15:14:07;33.70;37.20
14670;DHT22;7423;48.722;9.350;2022-07-18T15:16:34;33.90;37.80
14670;DHT22;7423;48.722;9.350;2022-07-18T15:19:02;33.70;37.20
14670;DHT22;7423;48.722;9.350;2022-07-18T15:21:30;33.80;37.40
14670;DHT22;7423;48.722;9.350;2022-07-18T15:23:57;33.80;37.80
14670;DHT22;7423;48.722;9.350;2022-07-18T15:26:25;33.80;38.10
14670;DHT22;7423;48.722;9.350;2022-07-18T15:28:52;33.60;37.70
14670;DHT22;7423;48.722;9.350;2022-07-18T15:31:19;33.70;37.20
14670;DHT22;7423;48.722;9.350;2022-07-18T15:33:46;33.90;37.70
14670;DHT22;7423;48.722;9.350;2022-07-18T15:36:13;33.80;38.10
14670;DHT22;7423;48.722;9.350;2022-07-18T15:38:40;33.70;38.60
14670;DHT22;7423;48.722;9.350;2022-07-18T15:41:08;33.60;38.90
14670;DHT22;7423;48.722;9.350;2022-07-18T15:43:37;33.60;39.10
14670;DHT22;7423;48.722;9.350;2022-07-18T15:46:06;33.50;40.10
14670;DHT22;7423;48.722;9.350;2022-07-18T15:48:33;33.40;39.30
14670;DHT22;7423;48.722;9.350;2022-07-18T15:51:00;33.40;39.50
14670;DHT22;7423;48.722;9.350;2022-07-18T15:53:26;33.40;39.40
14670;DHT22;7423;48.722;9.350;2022-07-18T15:55:53;33.20;39.80
14670;DHT22;7423;48.722;9.350;2022-07-18T15:58:20;33.20;39.90
14670;DHT22;7423;48.722;9.350;2022-07-18T16:00:47;33.20;40.10
14670;DHT22;7423;48.722;9.350;2022-07-18T16:03:14;33.20;40.20
14670;DHT22;7423;48.722;9.350;2022-07-18T16:05:41;33.00;40.00
14670;DHT22;7423;48.722;9.350;2022-07-18T16:08:08;33.20;39.90
14670;DHT22;7423;48.722;9.350;2022-07-18T16:10:35;33.10;39.70
14670;DHT22;7423;48.722;9.350;2022-07-18T16:13:02;33.10;39.60